Time;durP1;ratioP1;P1;durP2;ratioP2;P2;SDS_P1;SDS_P2;PMS_P1;PMS_P2;Temp;Humidity;BMP_temperature;BMP_pressure;BME280_temperature;BME280_humidity;BME280_pressure;Samples;Min_cycle;Max_cycle;Signal;HPM_P1;HPM_P2
2022/07/09 00:02:24;;;;;;;16.10;7.80;;;;;;;16.28;73.32;100027.31;4974980;28;20053;-85
2022/07/09 00:04:50;;;;;;;12.20;7.47;;;;;;;16.32;73.67;100035.94;4992898;28;20043;-82
2022/07/09 00:07:16;;;;;;;12.35;7.20;;;;;;;16.49;73.55;100072.22;4984661;28;20050;-82
2022/07/09 00:09:43;;;;;;;10.25;7.03;;;;;;;16.40;73.78;100054.97;4981280;28;20104;-81
2022/07/09 00:12:09;;;;;;;15.20;7.50;;;;;;;16.40;74.04;100050.56;5006945;28;20050;-85
2022/07/09 00:14:35;;;;;;;13.77;7.63;;;;;;;16.35;73.97;100043.72;5001274;28;20062;-83
2022/07/09 00:17:01;;;;;;;15.98;7.68;;;;;;;16.18;73.92;100012.69;5013629;28;20033;-84
2022/07/09 00:19:28;;;;;;;11.35;7.20;;;;;;;16.26;74.16;100029.09;5016119;28;20049;-83
2022/07/09 00:21:54;;;;;;;8.85;6.57;;;;;;;16.50;74.64;100061.66;5016232;28;20072;-82
2022/07/09 00:24:20;;;;;;;10.88;7.07;;;;;;;16.21;74.16;100021.38;4999777;28;20026;-84
2022/07/09 00:26:46;;;;;;;12.52;7.00;;;;;;;16.25;74.44;100022.13;5013691;28;20018;-82
2022/07/09 00:29:12;;;;;;;11.93;7.57;;;;;;;16.52;74.38;100064.25;5010619;28;20098;-82
2022/07/09 00:31:39;;;;;;;14.23;8.80;;;;;;;16.34;74.40;100037.59;5012633;28;20038;-81
2022/07/09 00:34:05;;;;;;;12.30;6.80;;;;;;;16.40;74.37;100039.22;5010435;28;20025;-83
2022/07/09 00:36:31;;;;;;;13.00;7.25;;;;;;;16.58;74.56;100063.22;5018563;28;20117;-86
2022/07/09 00:38:57;;;;;;;13.18;7.13;;;;;;;16.51;74.65;100045.00;5007258;28;20033;-83
2022/07/09 00:41:23;;;;;;;13.18;6.93;;;;;;;16.34;74.41;100008.72;5007028;28;20038;-82
2022/07/09 00:43:50;;;;;;;13.57;7.20;;;;;;;16.59;74.52;100039.50;5003239;28;20038;-82
2022/07/09 00:46:17;;;;;;;23.33;7.65;;;;;;;16.45;74.41;100018.06;5003248;28;20306;-82
2022/07/09 00:48:43;;;;;;;15.88;7.35;;;;;;;16.64;74.07;100055.16;4999708;28;20093;-83
2022/07/09 00:51:13;;;;;;;9.85;6.45;;;;;;;16.47;74.25;100014.47;5001724;28;20049;-86
2022/07/09 00:53:40;;;;;;;13.07;7.18;;;;;;;16.56;73.93;100037.84;4991093;28;20029;-82
2022/07/09 00:56:07;;;;;;;10.15;5.93;;;;;;;16.54;73.94;100049.31;5004723;28;20038;-83
2022/07/09 00:58:34;;;;;;;9.65;6.10;;;;;;;16.36;73.78;100020.03;5006949;28;20046;-81
2022/07/09 01:01:02;;;;;;;16.52;5.68;;;;;;;16.51;73.80;100055.50;4992819;28;20080;-84
2022/07/09 01:03:28;;;;;;;11.57;6.07;;;;;;;16.48;73.57;100049.50;4990195;28;20053;-82
2022/07/09 01:05:56;;;;;;;32.65;7.80;;;;;;;16.31;73.78;100028.97;4989028;28;20039;-83
2022/07/09 01:08:22;;;;;;;16.35;6.38;;;;;;;16.33;73.70;100033.25;4995018;28;20110;-83
2022/07/09 01:10:51;;;;;;;14.88;7.72;;;;;;;16.53;73.53;100066.81;4992270;28;20042;-83
2022/07/09 01:13:17;;;;;;;12.13;6.13;;;;;;;16.42;73.74;100047.91;4988329;28;20049;-85
2022/07/09 01:15:44;;;;;;;10.40;6.63;;;;;;;16.52;73.77;100067.72;4996031;28;20043;-84
2022/07/09 01:18:11;;;;;;;9.10;6.70;;;;;;;16.47;74.10;100061.75;4998001;28;20046;-81
2022/07/09 01:20:37;;;;;;;13.80;6.97;;;;;;;16.44;73.85;100043.44;4991751;28;20050;-83
2022/07/09 01:23:03;;;;;;;11.63;6.88;;;;;;;16.44;73.80;100040.81;4994097;28;20038;-86
2022/07/09 01:25:45;;;;;;;13.43;6.78;;;;;;;16.64;73.79;100065.66;4993087;28;20058;-84
2022/07/09 01:28:11;;;;;;;;;;;;;;;16.74;73.61;100082.00;4993105;28;20061;-81
2022/07/09 01:30:39;;;;;;;16.08;7.88;;;;;;;16.69;73.52;100064.63;4986211;28;19949;-85
2022/07/09 01:33:07;;;;;;;11.35;7.15;;;;;;;16.72;73.92;100066.28;4989851;28;20050;-83
2022/07/09 01:35:33;;;;;;;13.35;7.25;;;;;;;16.72;73.92;100063.66;4998997;28;20553;-82
2022/07/09 01:38:00;;;;;;;13.18;7.68;;;;;;;16.73;73.79;100049.59;4996507;28;20038;-81
2022/07/09 01:40:26;;;;;;;16.45;8.23;;;;;;;16.91;73.61;100077.09;4991077;28;20081;-84
2022/07/09 01:42:53;;;;;;;11.82;7.72;;;;;;;16.96;73.70;100076.97;4988701;28;20053;-84
2022/07/09 01:45:19;;;;;;;12.05;8.00;;;;;;;16.69;73.60;100030.47;4990866;28;20104;-84
2022/07/09 01:47:45;;;;;;;15.38;7.15;;;;;;;16.79;73.65;100045.91;4992099;28;20132;-84
2022/07/09 01:50:12;;;;;;;12.82;8.30;;;;;;;16.88;73.82;100050.91;4991258;28;20834;-81
2022/07/09 01:52:38;;;;;;;18.15;8.65;;;;;;;16.83;73.72;100043.19;4977492;28;20037;-83
2022/07/09 01:55:05;;;;;;;17.20;9.82;;;;;;;16.68;73.85;99996.34;4990656;28;20046;-82
2022/07/09 01:57:32;;;;;;;22.55;13.27;;;;;;;16.73;73.50;99999.69;4994749;28;20120;-84
2022/07/09 01:59:58;;;;;;;18.25;11.88;;;;;;;16.78;73.60;99997.78;4989951;28;20049;-85
2022/07/09 02:02:25;;;;;;;22.23;12.05;;;;;;;16.96;73.46;100016.53;4992404;28;20054;-84
2022/07/09 02:04:51;;;;;;;20.80;11.35;;;;;;;17.26;73.74;100053.25;4990501;28;20046;-80
2022/07/09 02:07:17;;;;;;;16.48;10.50;;;;;;;17.33;73.41;100057.41;4984049;28;20053;-82
2022/07/09 02:09:43;;;;;;;37.55;30.67;;;;;;;17.17;73.26;100036.88;5002468;28;20554;-83
2022/07/09 02:12:10;;;;;;;23.27;14.20;;;;;;;17.40;73.38;100055.44;4996718;28;20035;-81
2022/07/09 02:14:36;;;;;;;19.85;12.05;;;;;;;17.40;73.26;100045.78;4991455;28;20046;-84
2022/07/09 02:17:03;;;;;;;15.45;11.10;;;;;;;17.50;73.00;100048.09;4981712;28;20038;-81
2022/07/09 02:19:29;;;;;;;15.43;11.88;;;;;;;17.50;72.93;100041.06;4994192;28;20065;-82
2022/07/09 02:21:56;;;;;;;18.48;12.15;;;;;;;17.65;73.02;100046.72;4977772;28;20474;-84
2022/07/09 02:24:22;;;;;;;16.25;11.75;;;;;;;17.66;72.74;100038.78;4988658;28;20061;-84
2022/07/09 02:26:49;;;;;;;16.40;11.60;;;;;;;17.84;72.68;100045.16;4992613;28;20436;-85
2022/07/09 02:29:15;;;;;;;23.15;11.40;;;;;;;17.69;72.60;100022.88;4989480;28;20053;-82
2022/07/09 02:31:41;;;;;;;18.83;10.98;;;;;;;17.70;72.52;100008.81;4986689;28;20051;-82
2022/07/09 02:34:07;;;;;;;17.23;10.90;;;;;;;18.02;72.30;100059.47;4991215;28;20460;-83
2022/07/09 02:36:33;;;;;;;17.45;10.25;;;;;;;18.07;71.93;100054.06;4987832;28;21104;-83
2022/07/09 02:38:59;;;;;;;17.73;10.77;;;;;;;18.08;72.01;100044.38;4987506;28;20034;-82
2022/07/09 02:41:26;;;;;;;20.50;11.13;;;;;;;18.23;71.87;100064.88;4991305;28;20042;-83
2022/07/09 02:43:52;;;;;;;16.40;11.13;;;;;;;18.16;71.76;100047.59;4988263;28;20077;-82
2022/07/09 02:46:18;;;;;;;22.33;11.95;;;;;;;18.35;71.46;100068.84;4990147;28;20042;-85
2022/07/09 02:48:44;;;;;;;27.73;12.52;;;;;;;18.20;71.18;100047.41;4989872;28;20050;-83
2022/07/09 02:51:11;;;;;;;21.95;10.65;;;;;;;18.27;70.97;100041.94;4995653;28;20226;-82
2022/07/09 02:53:37;;;;;;;19.08;10.27;;;;;;;18.29;70.72;100035.69;5005471;28;20136;-82
2022/07/09 02:56:04;;;;;;;18.77;10.40;;;;;;;18.33;70.79;100032.03;4998556;28;20042;-82
2022/07/09 02:58:31;;;;;;;16.50;10.40;;;;;;;18.65;70.56;100071.25;4993505;28;20034;-80
2022/07/09 03:00:58;;;;;;;23.38;11.40;;;;;;;18.56;70.58;100046.09;4994469;28;20042;-81
2022/07/09 03:03:24;;;;;;;15.82;10.27;;;;;;;18.46;70.14;100021.00;4998290;28;20062;-84
2022/07/09 03:05:50;;;;;;;15.75;10.35;;;;;;;18.83;70.27;100074.94;5007029;28;20038;-82
2022/07/09 03:08:17;;;;;;;14.82;9.80;;;;;;;18.74;70.32;100048.94;5008182;28;20449;-84
2022/07/09 03:10:44;;;;;;;15.75;9.98;;;;;;;18.67;70.14;100032.50;5011358;28;20026;-84
2022/07/09 03:13:10;;;;;;;20.42;10.60;;;;;;;18.69;69.91;100035.06;5013247;28;20041;-84
2022/07/09 03:15:36;;;;;;;17.23;10.50;;;;;;;19.00;69.98;100078.72;5008254;28;20053;-85
2022/07/09 03:18:02;;;;;;;22.60;11.77;;;;;;;18.85;70.16;100048.53;5002090;28;20042;-82
2022/07/09 03:20:28;;;;;;;24.48;11.35;;;;;;;18.83;70.13;100043.31;4988995;28;20053;-83
2022/07/09 03:22:54;;;;;;;21.48;12.13;;;;;;;18.92;70.29;100057.91;5006810;28;20054;-82
2022/07/09 03:25:21;;;;;;;24.98;11.68;;;;;;;19.13;70.49;100087.88;5006660;28;20073;-82
2022/07/09 03:27:47;;;;;;;18.67;10.00;;;;;;;19.19;70.78;100092.91;4995752;28;20053;-81
2022/07/09 03:30:13;;;;;;;21.67;10.70;;;;;;;19.25;70.69;100076.84;4986064;28;20059;-84
2022/07/09 03:32:40;;;;;;;24.38;10.95;;;;;;;19.35;70.56;100071.16;4988084;28;20053;-82
2022/07/09 03:35:07;;;;;;;15.23;10.88;;;;;;;19.66;70.25;100083.94;4986178;28;20041;-81
2022/07/09 03:37:33;;;;;;;20.58;11.20;;;;;;;19.71;69.65;100081.97;4990949;28;20125;-83
2022/07/09 03:39:59;;;;;;;19.73;11.55;;;;;;;19.80;70.26;100062.22;4990846;28;20034;-82
2022/07/09 03:42:25;;;;;;;20.13;10.68;;;;;;;19.62;69.92;100011.13;4990098;28;20034;-83
2022/07/09 03:44:51;;;;;;;17.17;10.30;;;;;;;19.82;69.96;100017.31;4986956;28;20077;-82
2022/07/09 03:47:18;;;;;;;14.48;10.25;;;;;;;19.77;69.63;99987.59;4991139;28;20440;-86
2022/07/09 03:49:44;;;;;;;17.83;10.13;;;;;;;19.87;69.47;99975.69;4984572;28;20047;-83
2022/07/09 03:52:10;;;;;;;22.25;10.65;;;;;;;20.13;69.43;99995.69;4990180;28;20489;-82
2022/07/09 03:54:36;;;;;;;14.18;10.05;;;;;;;20.32;69.15;100010.69;4988655;28;20038;-84
2022/07/09 03:57:02;;;;;;;21.17;12.07;;;;;;;20.09;68.59;99972.97;4982164;28;20061;-84
2022/07/09 03:59:29;;;;;;;21.05;11.30;;;;;;;20.30;69.14;100002.81;4983578;28;20151;-84
2022/07/09 04:01:55;;;;;;;25.27;12.45;;;;;;;20.23;69.01;99985.56;4991390;28;20046;-81
2022/07/09 04:04:21;;;;;;;24.02;12.50;;;;;;;20.58;68.97;100029.78;4989895;28;20042;-82
2022/07/09 04:06:47;;;;;;;22.73;13.27;;;;;;;20.37;68.84;99984.06;4993007;28;20152;-82
2022/07/09 04:09:13;;;;;;;25.80;13.00;;;;;;;20.54;68.31;99992.03;4990656;28;21410;-82
2022/07/09 04:11:39;;;;;;;20.10;12.75;;;;;;;20.91;68.11;100029.09;4990991;28;20134;-84
2022/07/09 04:14:05;;;;;;;24.08;12.80;;;;;;;20.93;67.89;100011.38;4978943;28;20119;-83
2022/07/09 04:16:32;;;;;;;23.55;13.75;;;;;;;21.22;67.29;100011.75;4991105;28;20081;-86
2022/07/09 04:18:59;;;;;;;21.00;12.32;;;;;;;21.44;67.19;99992.13;4990673;28;20396;-86
2022/07/09 04:21:25;;;;;;;23.08;12.55;;;;;;;21.61;67.21;99978.06;4977387;28;20038;-88
2022/07/09 04:23:52;;;;;;;21.08;12.50;;;;;;;21.75;66.07;99972.03;4991154;28;20088;-85
2022/07/09 04:26:21;;;;;;;24.40;13.23;;;;;;;22.00;65.46;100010.44;5003448;28;20053;-84
2022/07/09 04:28:48;;;;;;;19.45;12.18;;;;;;;21.87;65.37;99997.88;5006733;28;20037;-80
2022/07/09 04:31:15;;;;;;;19.85;12.43;;;;;;;22.15;65.42;100049.41;4986867;28;20058;-87
2022/07/09 04:33:43;;;;;;;23.10;12.60;;;;;;;22.07;65.10;100043.63;5007734;28;20039;-80
2022/07/09 04:36:10;;;;;;;21.83;13.05;;;;;;;22.06;64.72;100049.88;5012352;28;20049;-83
2022/07/09 04:38:37;;;;;;;22.33;12.73;;;;;;;21.90;64.72;100023.31;5004770;28;20042;-85
2022/07/09 04:41:05;;;;;;;18.75;12.32;;;;;;;21.74;64.70;100020.63;5005413;28;20069;-84
2022/07/09 04:43:37;;;;;;;22.10;12.68;;;;;;;21.63;64.63;100003.50;4989391;28;20072;-81
2022/07/09 04:46:04;;;;;;;19.27;11.43;;;;;;;21.90;64.62;100033.91;5029988;28;20035;-85
2022/07/09 04:48:30;;;;;;;16.60;11.63;;;;;;;21.99;63.96;100045.81;5000105;28;20038;-82
2022/07/09 04:50:57;;;;;;;18.35;11.15;;;;;;;21.70;64.03;100001.41;5001574;28;20917;-85
2022/07/09 04:53:23;;;;;;;17.45;11.75;;;;;;;21.85;63.30;100015.63;5005300;28;20053;-84
2022/07/09 04:55:49;;;;;;;16.35;10.77;;;;;;;21.90;63.54;100010.97;4995063;28;20044;-84
2022/07/09 04:58:16;;;;;;;18.55;11.18;;;;;;;22.09;63.51;100026.72;4995211;28;20447;-84
2022/07/09 05:00:42;;;;;;;18.70;12.25;;;;;;;22.20;63.13;100012.03;4995763;28;20162;-83
2022/07/09 05:03:09;;;;;;;18.77;11.18;;;;;;;21.95;63.63;99963.03;4980299;28;20091;-85
2022/07/09 05:05:35;;;;;;;16.60;11.23;;;;;;;22.44;63.50;100006.38;4992207;28;20039;-82
2022/07/09 05:08:03;;;;;;;20.13;11.98;;;;;;;22.46;63.00;99962.91;4980735;28;20046;-85
2022/07/09 05:10:31;;;;;;;21.52;11.95;;;;;;;22.91;62.75;99986.06;4987837;28;20038;-80
2022/07/09 05:12:58;;;;;;;21.02;12.55;;;;;;;23.26;62.24;100009.75;4999319;28;20074;-85
2022/07/09 05:15:24;;;;;;;19.65;11.82;;;;;;;23.16;61.74;99962.47;4994944;28;20417;-86
2022/07/09 05:17:50;;;;;;;22.08;11.38;;;;;;;23.42;61.45;99957.44;4965808;28;20050;-83
2022/07/09 05:20:16;;;;;;;17.67;11.05;;;;;;;23.79;61.25;99993.31;5001171;28;20030;-81
2022/07/09 05:22:43;;;;;;;17.98;11.80;;;;;;;23.96;60.71;99977.19;4988107;28;20061;-85
2022/07/09 05:25:10;;;;;;;17.73;11.32;;;;;;;24.35;59.94;99990.75;4996295;28;20038;-87
2022/07/09 05:27:42;;;;;;;18.35;11.13;;;;;;;24.71;59.93;99978.75;5002660;28;20068;-81
2022/07/09 05:30:09;;;;;;;;;;;;;;;25.16;59.11;100004.22;4987622;28;20050;-83
2022/07/09 05:32:37;;;;;;;19.10;12.07;;;;;;;25.26;58.35;99962.72;4982175;28;20048;-83
2022/07/09 05:35:06;;;;;;;15.70;10.88;;;;;;;25.33;57.69;99968.47;4996146;28;20039;-80
2022/07/09 05:37:33;;;;;;;17.75;12.27;;;;;;;25.48;57.53;99972.78;5014649;28;20046;-84
2022/07/09 05:40:05;;;;;;;21.48;12.63;;;;;;;25.79;56.65;100002.63;5010321;28;20026;-82
2022/07/09 05:42:32;;;;;;;15.95;11.98;;;;;;;25.77;56.27;99974.38;4996068;28;20186;-82
2022/07/09 05:44:59;;;;;;;16.75;11.70;;;;;;;25.64;55.67;99945.91;4979795;28;20049;-82
2022/07/09 05:47:29;;;;;;;;;;;;;;;26.03;55.56;99999.19;4980701;28;20042;-83
2022/07/09 05:49:55;;;;;;;12.32;10.80;;;;;;;26.21;55.12;100004.19;4979234;28;19922;-83
2022/07/09 05:52:22;;;;;;;16.00;9.93;;;;;;;26.48;54.80;99980.03;4997901;28;20419;-82
2022/07/09 05:54:48;;;;;;;13.15;9.48;;;;;;;27.09;53.75;99963.13;4977128;28;20070;-83
2022/07/09 05:57:15;;;;;;;12.35;9.50;;;;;;;28.80;52.46;99992.59;4995074;28;20035;-82
2022/07/09 05:59:42;;;;;;;16.25;9.75;;;;;;;30.41;48.90;99969.97;4997134;28;20038;-84
2022/07/09 06:02:10;;;;;;;13.57;9.10;;;;;;;31.95;43.81;99981.78;5000255;28;20077;-83
2022/07/09 06:04:37;;;;;;;9.88;7.53;;;;;;;33.30;42.74;99981.16;5005166;28;20073;-80
2022/07/09 06:07:06;;;;;;;11.00;7.13;;;;;;;34.44;39.26;99949.56;5005308;28;20041;-81
2022/07/09 06:09:35;;;;;;;8.98;7.13;;;;;;;35.25;37.06;99967.84;4991452;28;21817;-85
2022/07/09 06:12:01;;;;;;;11.45;6.53;;;;;;;35.83;34.84;99916.31;5004634;28;20045;-81
2022/07/09 06:14:27;;;;;;;12.30;7.38;;;;;;;36.63;33.87;99953.13;5013077;28;20065;-80
2022/07/09 06:16:55;;;;;;;8.57;5.20;;;;;;;36.70;33.21;99957.84;5025375;28;20120;-82
2022/07/09 06:19:24;;;;;;;10.18;6.22;;;;;;;37.32;32.36;99943.22;5007778;28;20061;-82
2022/07/09 06:21:50;;;;;;;9.13;5.65;;;;;;;37.51;31.31;99944.59;5009892;28;20038;-81
2022/07/09 06:24:16;;;;;;;7.88;4.70;;;;;;;37.27;30.85;99958.38;5000565;28;20506;-87
2022/07/09 06:26:43;;;;;;;10.18;5.30;;;;;;;38.02;29.82;99923.13;4998103;28;20081;-84
2022/07/09 06:29:11;;;;;;;8.02;5.95;;;;;;;39.38;28.25;99927.75;4979251;28;20049;-83
2022/07/09 06:31:45;;;;;;;8.68;5.78;;;;;;;40.51;26.83;99942.06;4999387;28;20555;-87
2022/07/09 06:34:12;;;;;;;7.80;5.00;;;;;;;40.62;27.04;99955.06;4963417;28;20413;-84
2022/07/09 06:36:39;;;;;;;5.25;4.60;;;;;;;40.71;26.17;99941.28;4978432;28;20533;-82
2022/07/09 06:42:08;;;;;;;5.47;4.80;;;;;;;41.88;25.23;99950.78;4945181;28;20108;-84
2022/07/09 06:44:36;;;;;;;6.07;5.15;;;;;;;42.05;24.41;99945.66;4969654;28;20130;-82
2022/07/09 06:47:05;;;;;;;7.93;5.03;;;;;;;40.87;24.40;99950.94;5007543;28;20048;-81
2022/07/09 06:49:34;;;;;;;4.95;4.50;;;;;;;39.12;25.23;99903.94;5012098;28;20042;-86
2022/07/09 06:52:01;;;;;;;9.00;6.05;;;;;;;38.05;26.25;99939.91;5019862;28;20030;-86
2022/07/09 06:54:28;;;;;;;7.93;5.43;;;;;;;36.73;26.96;99938.50;5005564;28;20048;-87
2022/07/09 06:56:56;;;;;;;8.07;5.88;;;;;;;34.67;29.25;99922.72;5013781;28;20092;-83
2022/07/09 06:59:24;;;;;;;8.13;6.20;;;;;;;33.71;30.58;99923.94;5008403;28;20132;-86
2022/07/09 07:01:51;;;;;;;42.78;35.92;;;;;;;33.02;31.80;99925.53;4980521;28;20168;-85
2022/07/09 07:04:19;;;;;;;4.80;4.35;;;;;;;32.41;32.65;99940.63;4975839;28;20042;-81
2022/07/09 07:06:48;;;;;;;5.72;3.65;;;;;;;31.48;33.43;99931.53;4993886;28;20038;-85
2022/07/09 07:09:18;;;;;;;4.18;3.75;;;;;;;30.58;34.28;99920.19;4996799;28;20477;-83
2022/07/09 07:11:45;;;;;;;6.90;4.32;;;;;;;29.84;34.62;99914.19;4996377;28;20398;-80
2022/07/09 07:14:12;;;;;;;5.00;4.15;;;;;;;29.41;36.03;99922.31;4998879;28;20049;-85
2022/07/09 07:16:39;;;;;;;5.93;3.88;;;;;;;28.98;37.65;99907.22;5008951;28;20049;-84
2022/07/09 07:19:05;;;;;;;5.65;4.70;;;;;;;28.70;38.20;99894.28;5017425;28;20053;-80
2022/07/09 07:21:31;;;;;;;7.22;5.20;;;;;;;28.44;39.48;99896.47;5001214;28;20049;-82
2022/07/09 07:23:58;;;;;;;6.18;4.90;;;;;;;28.15;40.62;99872.13;4987345;28;20556;-82
2022/07/09 07:26:25;;;;;;;9.80;6.50;;;;;;;27.96;42.26;99894.97;5001228;28;20109;-84
2022/07/09 07:28:54;;;;;;;9.30;6.60;;;;;;;27.61;42.91;99880.78;5010928;28;20984;-84
2022/07/09 07:31:22;;;;;;;9.05;6.18;;;;;;;27.69;44.35;99911.41;4994901;28;20058;-84
2022/07/09 07:33:49;;;;;;;8.30;6.88;;;;;;;27.28;44.37;99857.56;4999834;28;20042;-85
2022/07/09 07:36:16;;;;;;;7.03;6.05;;;;;;;27.54;44.54;99914.31;5010743;28;20132;-86
2022/07/09 07:38:44;;;;;;;8.95;6.03;;;;;;;27.54;45.02;99937.50;5026203;28;20046;-88
2022/07/09 07:41:11;;;;;;;7.22;6.00;;;;;;;27.39;45.12;99918.16;4986352;28;20088;-85
2022/07/09 07:43:40;;;;;;;6.80;6.10;;;;;;;27.48;46.59;99966.41;4996808;28;20046;-84
2022/07/09 07:46:07;;;;;;;8.15;6.25;;;;;;;27.02;47.45;99898.69;4987572;28;20052;-84
2022/07/09 07:48:35;;;;;;;9.73;5.53;;;;;;;27.46;47.62;99979.03;5002657;28;20064;-83
2022/07/09 07:51:03;;;;;;;6.57;5.43;;;;;;;27.50;46.74;99979.63;4999460;28;20050;-82
2022/07/09 07:53:32;;;;;;;8.40;5.32;;;;;;;27.50;46.53;99942.22;4996946;28;20042;-83
2022/07/09 07:56:03;;;;;;;8.18;5.93;;;;;;;27.70;46.20;99972.75;4962675;28;20050;-85
2022/07/09 07:58:29;;;;;;;8.98;6.68;;;;;;;27.58;45.68;100001.28;4995020;28;20070;-83
2022/07/09 08:00:56;;;;;;;8.93;6.22;;;;;;;27.24;46.47;99984.28;4980263;28;20034;-83
2022/07/09 08:03:23;;;;;;;11.13;6.45;;;;;;;27.00;46.90;100010.06;4995124;28;20085;-83
2022/07/09 08:05:49;;;;;;;8.52;6.13;;;;;;;26.74;47.02;100006.59;5002817;28;20042;-82
2022/07/09 08:08:18;;;;;;;7.10;5.40;;;;;;;26.23;47.11;99981.81;5001030;28;20043;-84
2022/07/09 08:10:45;;;;;;;7.80;4.95;;;;;;;26.22;47.37;100016.56;5001308;28;20054;-82
2022/07/09 08:13:20;;;;;;;7.10;5.60;;;;;;;25.85;47.06;99972.88;4998951;28;20034;-88
2022/07/09 08:15:46;;;;;;;5.80;5.13;;;;;;;25.50;47.13;99919.41;4999830;28;20053;-88
2022/07/09 08:18:13;;;;;;;6.75;6.05;;;;;;;25.61;46.92;99953.28;5001637;28;20041;-83
2022/07/09 08:20:41;;;;;;;11.27;6.90;;;;;;;25.86;46.86;100013.69;4993466;28;20037;-86
2022/07/09 08:23:08;;;;;;;11.13;7.30;;;;;;;25.61;47.84;99996.75;5000746;28;20496;-87
2022/07/09 08:25:35;;;;;;;11.10;7.15;;;;;;;25.59;48.15;100003.16;4981388;28;20042;-83
2022/07/09 08:28:02;;;;;;;9.85;6.63;;;;;;;25.51;48.67;100004.50;4999789;28;20052;-85
2022/07/09 08:30:28;;;;;;;6.95;5.63;;;;;;;25.49;48.22;99993.09;5001609;28;20059;-84
2022/07/09 08:32:54;;;;;;;6.97;4.90;;;;;;;25.77;48.63;100020.53;4995964;28;20232;-84
2022/07/09 08:35:21;;;;;;;7.47;5.80;;;;;;;25.90;48.18;100025.84;4996318;28;20034;-81
2022/07/09 08:37:47;;;;;;;6.63;5.15;;;;;;;25.82;48.27;99969.59;4999745;28;20041;-84
2022/07/09 08:40:13;;;;;;;6.82;4.60;;;;;;;26.15;47.45;99987.69;5009099;28;20053;-85
2022/07/09 08:42:40;;;;;;;7.80;5.53;;;;;;;26.32;46.64;100001.63;4996492;28;20083;-81
2022/07/09 08:45:14;;;;;;;4.22;3.80;;;;;;;26.17;46.12;99980.41;4970502;28;20128;-84
2022/07/09 08:47:42;;;;;;;4.78;3.60;;;;;;;26.25;45.36;99992.38;4998589;28;20085;-80
2022/07/09 08:50:09;;;;;;;6.32;4.18;;;;;;;26.31;45.12;99994.59;5001540;28;20034;-85
2022/07/09 08:52:36;;;;;;;6.38;4.55;;;;;;;26.49;44.44;100010.22;5000333;28;20105;-87
2022/07/09 08:55:03;;;;;;;4.80;4.30;;;;;;;26.50;44.89;100007.44;5000169;28;20525;-83
2022/07/09 08:57:31;;;;;;;6.53;3.80;;;;;;;26.11;44.83;99962.19;5018268;28;20108;-85
2022/07/09 08:59:57;;;;;;;7.05;4.28;;;;;;;26.15;45.55;99990.34;5005695;28;20129;-85
2022/07/09 09:02:23;;;;;;;5.60;3.90;;;;;;;26.07;45.70;99998.03;5001438;28;20045;-84
2022/07/09 09:04:54;;;;;;;4.18;3.35;;;;;;;26.03;45.87;100007.19;4997625;28;20576;-81
2022/07/09 09:07:21;;;;;;;8.85;3.40;;;;;;;25.89;45.73;99980.66;5014990;28;20042;-82
2022/07/09 09:09:48;;;;;;;4.43;3.83;;;;;;;25.94;45.60;99991.84;4997042;28;20053;-82
2022/07/09 09:12:15;;;;;;;7.28;3.88;;;;;;;25.96;46.45;100003.25;4983841;28;20069;-80
2022/07/09 09:14:49;;;;;;;5.72;3.50;;;;;;;25.80;46.23;99985.66;4991600;28;20359;-86
2022/07/09 09:17:16;;;;;;;4.22;3.38;;;;;;;25.72;46.70;99980.00;4998209;28;20156;-80
2022/07/09 09:19:43;;;;;;;6.28;3.90;;;;;;;25.60;46.59;99970.22;4978432;28;20049;-83
2022/07/09 09:22:09;;;;;;;7.38;3.70;;;;;;;25.62;46.66;99993.13;5004738;28;20050;-80
2022/07/09 09:24:36;;;;;;;4.30;3.10;;;;;;;25.28;46.97;99950.16;4995809;28;20038;-82
2022/07/09 09:27:02;;;;;;;6.53;3.63;;;;;;;25.25;47.76;99959.22;5010331;28;20045;-85
2022/07/09 09:29:31;;;;;;;5.20;3.28;;;;;;;25.19;48.33;99962.28;5003544;28;20042;-82
2022/07/09 09:31:57;;;;;;;5.47;3.38;;;;;;;24.94;48.43;99929.31;4998181;28;20050;-81
2022/07/09 09:34:24;;;;;;;4.75;3.40;;;;;;;24.77;48.46;99913.66;4999810;28;20089;-84
2022/07/09 09:36:54;;;;;;;4.50;3.38;;;;;;;24.84;48.95;99930.03;4978740;28;20038;-83
2022/07/09 09:39:26;;;;;;;5.10;3.80;;;;;;;24.72;49.38;99915.75;5004868;28;20046;-85
2022/07/09 09:41:53;;;;;;;4.32;3.35;;;;;;;24.45;49.80;99897.97;4998390;28;20056;-85
2022/07/09 09:44:24;;;;;;;4.93;3.53;;;;;;;24.53;50.12;99908.97;4998033;28;20034;-82
2022/07/09 09:46:50;;;;;;;;;;;;;;;24.42;49.81;99892.84;4995754;28;20042;-82
2022/07/09 09:49:17;;;;;;;6.70;4.40;;;;;;;24.36;50.67;99878.16;5024088;28;20531;-80
2022/07/09 09:52:05;;;;;;;8.38;5.68;;;;;;;24.26;51.28;99872.56;4992461;28;20038;-81
2022/07/09 09:54:33;;;;;;;9.48;6.63;;;;;;;24.12;51.90;99876.13;5001747;28;20057;-84
2022/07/09 09:57:04;;;;;;;7.88;5.10;;;;;;;24.12;53.00;99880.59;5008942;28;20222;-85
2022/07/09 09:59:31;;;;;;;7.73;4.57;;;;;;;24.04;53.02;99886.41;5005510;28;20065;-85
2022/07/09 10:01:58;;;;;;;7.97;4.55;;;;;;;24.16;53.61;99898.91;4997181;28;20702;-79
2022/07/09 10:04:25;;;;;;;4.82;4.32;;;;;;;24.48;53.68;99919.91;4996174;28;20042;-81
2022/07/09 10:06:51;;;;;;;7.13;4.90;;;;;;;24.57;53.73;99898.97;4993846;28;20046;-83
2022/07/09 10:09:17;;;;;;;7.22;4.70;;;;;;;24.85;53.72;99907.81;4981852;28;20039;-81
2022/07/09 10:11:51;;;;;;;5.88;4.40;;;;;;;25.14;53.04;99937.78;4995518;28;20045;-82
2022/07/09 10:14:32;;;;;;;5.18;4.60;;;;;;;25.24;52.78;99922.03;4993917;28;20580;-86
2022/07/09 10:17:19;;;;;;;7.05;4.50;;;;;;;25.39;51.60;99926.28;4998345;28;20046;-84
2022/07/09 10:19:56;;;;;;;5.47;4.57;;;;;;;25.40;52.17;99921.81;4992318;28;20066;-81
2022/07/09 10:22:35;;;;;;;5.00;4.55;;;;;;;25.31;51.79;99888.69;4991461;28;20133;-80
2022/07/09 10:25:02;;;;;;;5.35;4.40;;;;;;;25.45;51.42;99874.47;4993310;28;20050;-84
2022/07/09 10:27:29;;;;;;;5.00;4.10;;;;;;;25.90;51.05;99889.09;4995281;28;20042;-83
2022/07/09 10:29:59;;;;;;;3.78;3.47;;;;;;;26.16;50.37;99879.22;4985183;28;20516;-80
2022/07/09 10:32:31;;;;;;;4.65;4.15;;;;;;;26.50;49.38;99870.56;5012216;28;20073;-79
2022/07/09 10:35:04;;;;;;;4.47;4.07;;;;;;;26.87;49.21;99868.66;5010431;28;20130;-80
2022/07/09 10:37:44;;;;;;;5.78;4.55;;;;;;;27.14;48.62;99880.00;4998525;28;20046;-81
2022/07/09 10:40:12;;;;;;;5.13;4.63;;;;;;;27.38;47.87;99844.34;4998297;28;20076;-79
2022/07/09 10:42:41;;;;;;;4.80;4.40;;;;;;;27.66;46.41;99873.28;4996082;28;20042;-79
2022/07/09 10:45:27;;;;;;;6.43;4.63;;;;;;;27.60;45.42;99863.06;4997526;28;20037;-79
2022/07/09 10:47:56;;;;;;;5.70;4.72;;;;;;;27.58;46.37;99824.94;5006029;28;20045;-80
2022/07/09 10:50:24;;;;;;;5.95;4.05;;;;;;;27.70;45.74;99822.22;4986533;28;20105;-81
2022/07/09 10:52:51;;;;;;;4.82;4.00;;;;;;;27.70;46.00;99839.13;4989362;28;20141;-82
2022/07/09 10:55:25;;;;;;;5.15;4.65;;;;;;;27.49;45.91;99802.47;4975528;28;20186;-84
2022/07/09 10:57:52;;;;;;;5.55;4.15;;;;;;;27.49;45.66;99810.47;4987257;28;20129;-81
2022/07/09 11:00:21;;;;;;;4.43;3.60;;;;;;;27.58;45.30;99824.09;4973662;28;20027;-80
2022/07/09 11:02:57;;;;;;;4.28;3.90;;;;;;;27.53;44.98;99834.28;4987822;28;20039;-79
2022/07/09 11:05:27;;;;;;;4.72;3.92;;;;;;;27.10;45.35;99796.63;4987606;28;20047;-80
2022/07/09 11:07:55;;;;;;;4.53;3.90;;;;;;;27.20;44.95;99786.06;4988831;28;20101;-81
2022/07/09 11:10:22;;;;;;;5.22;4.10;;;;;;;27.23;44.77;99780.47;5006432;28;20205;-82
2022/07/09 11:12:48;;;;;;;5.60;4.53;;;;;;;26.73;45.56;99738.91;4986436;28;20128;-83
2022/07/09 11:15:22;;;;;;;5.43;4.50;;;;;;;26.92;45.66;99746.34;4996153;28;20049;-84
2022/07/09 11:18:13;;;;;;;7.80;5.32;;;;;;;27.10;46.14;99777.06;4988438;28;20048;-84
2022/07/09 11:21:04;;;;;;;5.03;4.50;;;;;;;27.18;45.75;99771.97;4968974;28;20073;-81
2022/07/09 11:23:39;;;;;;;4.47;3.90;;;;;;;27.05;45.35;99724.88;4992447;28;20053;-80
2022/07/09 11:26:05;;;;;;;4.78;4.05;;;;;;;27.34;45.25;99758.25;5003885;28;20525;-84
2022/07/09 11:28:33;;;;;;;5.85;4.60;;;;;;;27.59;44.83;99780.34;5003534;28;20130;-80
2022/07/09 11:31:04;;;;;;;4.97;4.47;;;;;;;27.45;44.76;99762.75;4996737;28;20053;-82